Time;durP1;ratioP1;P1;durP2;ratioP2;P2;SDS_P1;SDS_P2;PMS_P1;PMS_P2;Temp;Humidity;BMP_temperature;BMP_pressure;BME280_temperature;BME280_humidity;BME280_pressure;Samples;Min_cycle;Max_cycle;Signal;HPM_P1;HPM_P2
2023/06/26 00:01:32;;;;;;;11.13;6.47;;;17.30;99.90;;;;;;5074115;28;20229;-77
2023/06/26 00:04:00;;;;;;;13.07;6.57;;;17.30;99.90;;;;;;5073813;28;20217;-78
2023/06/26 00:06:27;;;;;;;10.37;6.50;;;17.30;99.90;;;;;;5073655;28;20209;-78
2023/06/26 00:08:55;;;;;;;9.97;6.30;;;17.30;99.90;;;;;;5073748;28;20657;-78
2023/06/26 00:11:22;;;;;;;11.23;7.10;;;17.30;99.90;;;;;;5092236;28;20221;-79
2023/06/26 00:13:50;;;;;;;12.20;7.03;;;17.20;99.90;;;;;;5092094;28;20653;-77
2023/06/26 00:16:17;;;;;;;13.00;6.50;;;17.20;99.90;;;;;;5057164;28;20282;-78
2023/06/26 00:18:44;;;;;;;10.40;6.60;;;17.20;99.90;;;;;;5074052;28;20288;-78
2023/06/26 00:21:11;;;;;;;13.07;6.60;;;17.10;99.90;;;;;;5057224;28;20666;-79
2023/06/26 00:23:38;;;;;;;11.00;6.60;;;17.10;99.90;;;;;;5073733;28;20610;-78
2023/06/26 00:26:06;;;;;;;13.23;6.80;;;17.10;99.90;;;;;;5091937;28;20224;-78
2023/06/26 00:28:33;;;;;;;10.60;6.43;;;17.00;99.90;;;;;;5056987;28;20197;-78
2023/06/26 00:31:00;;;;;;;10.07;6.43;;;17.00;99.90;;;;;;5056887;28;20218;-78
2023/06/26 00:33:27;;;;;;;10.03;6.40;;;16.90;99.90;;;;;;5057356;28;20228;-78
2023/06/26 00:35:54;;;;;;;12.13;6.50;;;16.90;99.90;;;;;;5073815;28;20570;-78
2023/06/26 00:38:22;;;;;;;10.73;6.70;;;16.90;99.90;;;;;;5073598;28;20713;-77
2023/06/26 00:40:49;;;;;;;9.83;6.63;;;16.90;99.90;;;;;;5073441;28;20225;-78
2023/06/26 00:43:16;;;;;;;11.70;6.90;;;16.90;99.90;;;;;;5074080;28;20564;-78
2023/06/26 00:45:43;;;;;;;10.57;7.07;;;16.90;99.90;;;;;;5073267;28;20236;-78
2023/06/26 00:48:11;;;;;;;13.43;6.87;;;16.80;99.90;;;;;;5053351;28;20284;-78
2023/06/26 00:50:40;;;;;;;12.03;6.77;;;16.80;99.90;;;;;;5072922;28;20222;-78
2023/06/26 00:53:12;;;;;;;10.53;7.00;;;16.80;99.90;;;;;;5073626;28;20252;-77
2023/06/26 00:55:39;;;;;;;12.73;7.10;;;16.70;99.90;;;;;;5075050;28;20210;-79
2023/06/26 00:58:06;;;;;;;9.90;6.60;;;16.70;99.90;;;;;;5073453;28;20201;-78
2023/06/26 01:00:33;;;;;;;11.03;6.70;;;16.80;99.90;;;;;;5073409;28;20625;-78
2023/06/26 01:03:00;;;;;;;11.77;6.47;;;16.80;99.90;;;;;;5056833;28;20283;-78
2023/06/26 01:05:29;;;;;;;9.63;6.50;;;16.70;99.90;;;;;;5056849;28;20214;-79
2023/06/26 01:07:58;;;;;;;9.30;6.40;;;16.70;99.90;;;;;;5073300;28;20187;-78
2023/06/26 01:10:27;;;;;;;10.73;6.70;;;16.60;99.90;;;;;;5073170;28;20305;-78
2023/06/26 01:12:56;;;;;;;12.50;6.90;;;16.60;99.90;;;;;;5074923;28;20256;-78
2023/06/26 01:15:23;;;;;;;10.80;6.40;;;16.50;99.90;;;;;;5073210;28;20697;-78
2023/06/26 01:17:51;;;;;;;14.07;7.33;;;16.50;99.90;;;;;;5074639;28;20186;-77
2023/06/26 01:20:20;;;;;;;11.20;7.00;;;16.50;99.90;;;;;;5073194;28;20666;-78
2023/06/26 01:23:12;;;;;;;11.27;6.57;;;16.40;99.90;;;;;;5073556;28;20627;-79
2023/06/26 01:26:10;;;;;;;12.93;6.53;;;16.40;99.90;;;;;;5056636;28;20218;-79
2023/06/26 01:28:42;;;;;;;12.87;6.53;;;16.40;99.90;;;;;;5074447;28;20182;-78
2023/06/26 01:31:11;;;;;;;9.07;6.27;;;16.40;99.90;;;;;;5056597;28;20276;-78
2023/06/26 01:33:39;;;;;;;12.60;6.80;;;16.30;99.90;;;;;;5073674;28;20240;-79
2023/06/26 01:36:07;;;;;;;13.87;6.90;;;16.30;99.90;;;;;;5073444;28;20221;-78
2023/06/26 01:38:34;;;;;;;14.13;7.13;;;16.20;99.90;;;;;;5073146;28;20206;-78
2023/06/26 01:41:02;;;;;;;11.20;6.80;;;16.20;99.90;;;;;;5072935;28;20677;-78
2023/06/26 01:43:57;;;;;;;15.70;7.30;;;16.10;99.90;;;;;;5072811;28;20240;-78
2023/06/26 01:46:47;;;;;;;11.10;6.73;;;16.10;99.90;;;;;;5072458;28;20238;-79
2023/06/26 01:49:26;;;;;;;13.57;6.80;;;16.10;99.90;;;;;;5072788;28;20691;-79
2023/06/26 01:52:17;;;;;;;12.00;7.30;;;16.10;99.90;;;;;;5072737;28;20669;-79
2023/06/26 01:55:07;;;;;;;14.97;7.03;;;16.10;99.90;;;;;;5072545;28;20305;-78
2023/06/26 01:57:35;;;;;;;13.07;7.23;;;16.00;99.90;;;;;;5072854;28;20202;-79
2023/06/26 02:00:03;;;;;;;10.40;6.80;;;16.00;99.90;;;;;;5073759;28;20655;-79
2023/06/26 02:02:30;;;;;;;13.87;7.37;;;15.90;99.90;;;;;;5071988;28;20194;-78
2023/06/26 02:04:57;;;;;;;10.30;6.80;;;15.90;99.90;;;;;;5074051;28;20210;-79
2023/06/26 02:07:24;;;;;;;10.70;6.53;;;15.90;99.90;;;;;;5072367;28;20228;-78
2023/06/26 02:09:51;;;;;;;14.90;7.43;;;15.90;99.90;;;;;;5072852;28;20201;-78
2023/06/26 02:12:18;;;;;;;11.20;6.97;;;15.90;99.90;;;;;;5072724;28;20230;-78
2023/06/26 02:14:45;;;;;;;11.43;7.13;;;15.90;99.90;;;;;;5055849;28;20225;-79
2023/06/26 02:17:12;;;;;;;10.30;6.57;;;15.90;99.90;;;;;;5072466;28;20293;-78
2023/06/26 02:19:47;;;;;;;11.57;7.37;;;15.90;99.90;;;;;;5072185;28;20690;-78
2023/06/26 02:22:15;;;;;;;12.60;7.20;;;15.90;99.90;;;;;;5073439;28;20201;-78
2023/06/26 02:24:43;;;;;;;13.60;7.40;;;15.90;99.90;;;;;;5073810;28;20331;-78
2023/06/26 02:27:10;;;;;;;11.57;7.50;;;15.90;99.90;;;;;;5055681;28;20200;-78
2023/06/26 02:29:40;;;;;;;11.80;7.17;;;15.90;99.90;;;;;;5055212;28;20236;-79
2023/06/26 02:32:07;;;;;;;14.63;7.57;;;15.80;99.90;;;;;;5071936;28;20198;-79
2023/06/26 02:34:35;;;;;;;13.03;7.97;;;15.90;99.90;;;;;;5055304;28;20237;-78
2023/06/26 02:37:02;;;;;;;17.33;7.70;;;15.80;99.90;;;;;;5071776;28;20281;-78
2023/06/26 02:39:29;;;;;;;20.10;8.37;;;15.80;99.90;;;;;;5071648;28;21008;-78
2023/06/26 02:41:56;;;;;;;11.00;7.50;;;15.80;99.90;;;;;;5071330;28;20705;-78
2023/06/26 02:44:23;;;;;;;12.13;7.23;;;15.90;99.90;;;;;;5072988;28;20258;-78
2023/06/26 02:46:50;;;;;;;12.30;7.43;;;15.80;99.90;;;;;;5055022;28;20238;-78
2023/06/26 02:49:17;;;;;;;12.53;7.73;;;15.80;99.90;;;;;;5055166;28;20220;-78
2023/06/26 02:51:47;;;;;;;15.33;8.00;;;15.80;99.90;;;;;;5071714;28;20210;-78
2023/06/26 02:54:14;;;;;;;12.37;7.97;;;15.90;99.90;;;;;;5071800;28;20653;-78
2023/06/26 02:56:42;;;;;;;15.80;7.93;;;15.90;99.90;;;;;;5054920;28;20250;-79
2023/06/26 02:59:14;;;;;;;14.20;8.50;;;15.90;99.90;;;;;;5071465;28;20289;-78
2023/06/26 03:01:41;;;;;;;13.20;7.83;;;15.90;99.90;;;;;;5071313;28;20221;-78
2023/06/26 03:04:08;;;;;;;13.20;7.83;;;15.90;99.90;;;;;;5071162;28;20290;-78
2023/06/26 03:06:36;;;;;;;13.27;8.20;;;15.90;99.90;;;;;;5071230;28;20587;-78
2023/06/26 03:09:03;;;;;;;13.07;7.93;;;15.90;99.90;;;;;;5071188;28;20206;-79
2023/06/26 03:11:29;;;;;;;12.10;7.93;;;15.90;99.90;;;;;;5072274;28;20233;-79
2023/06/26 03:13:57;;;;;;;18.77;7.90;;;15.90;99.90;;;;;;5071273;28;20186;-79
2023/06/26 03:16:24;;;;;;;17.93;8.33;;;16.00;99.90;;;;;;5072468;28;20252;-78
2023/06/26 03:18:50;;;;;;;12.37;7.77;;;16.00;99.90;;;;;;5054479;28;20274;-78
2023/06/26 03:21:18;;;;;;;12.73;8.17;;;16.10;99.90;;;;;;5054570;28;20325;-78
2023/06/26 03:23:44;;;;;;;13.40;7.90;;;16.00;99.90;;;;;;5054347;28;20626;-78
2023/06/26 03:26:14;;;;;;;10.57;7.30;;;16.00;99.90;;;;;;5054277;28;20245;-79
2023/06/26 03:28:42;;;;;;;13.57;7.97;;;16.10;99.90;;;;;;5054682;28;20198;-79
2023/06/26 03:31:09;;;;;;;12.83;7.93;;;16.10;99.90;;;;;;5054282;28;20330;-79
2023/06/26 03:33:38;;;;;;;11.57;7.50;;;16.20;99.90;;;;;;5072250;28;20206;-78
2023/06/26 03:36:06;;;;;;;13.97;8.10;;;16.20;99.90;;;;;;5071006;28;20673;-78
2023/06/26 03:38:33;;;;;;;13.20;8.10;;;16.20;99.90;;;;;;5070813;28;20198;-78
2023/06/26 03:40:59;;;;;;;19.17;9.07;;;16.30;99.90;;;;;;5072075;28;20317;-78
2023/06/26 03:43:26;;;;;;;12.90;8.67;;;16.30;99.90;;;;;;5070950;28;20285;-78
2023/06/26 03:45:53;;;;;;;14.53;9.00;;;16.40;99.90;;;;;;5072593;28;20269;-78
2023/06/26 03:48:20;;;;;;;16.33;8.77;;;16.50;99.90;;;;;;5074533;28;20201;-78
2023/06/26 03:50:47;;;;;;;13.60;8.80;;;16.50;99.90;;;;;;5057476;28;20229;-78
2023/06/26 03:53:14;;;;;;;14.23;8.13;;;16.50;99.90;;;;;;5057567;28;20237;-78
2023/06/26 03:55:41;;;;;;;14.40;8.47;;;16.50;99.90;;;;;;5074226;28;20254;-79
2023/06/26 03:58:08;;;;;;;17.87;8.77;;;16.60;99.90;;;;;;5057547;28;20193;-79
2023/06/26 04:00:35;;;;;;;13.50;8.60;;;16.60;99.90;;;;;;5073738;28;20241;-78
2023/06/26 04:03:02;;;;;;;15.73;8.90;;;16.70;99.90;;;;;;5057480;28;20185;-78
2023/06/26 04:05:30;;;;;;;16.43;9.47;;;16.70;99.90;;;;;;5073893;28;20244;-79
2023/06/26 04:07:56;;;;;;;14.73;9.20;;;16.80;99.90;;;;;;5057544;28;20193;-79
2023/06/26 04:10:24;;;;;;;18.13;8.80;;;16.80;99.90;;;;;;5074108;28;20709;-79
2023/06/26 04:12:51;;;;;;;15.77;9.00;;;16.80;99.90;;;;;;5074172;28;20201;-79
2023/06/26 04:15:17;;;;;;;16.00;9.20;;;16.90;99.90;;;;;;5074178;28;20249;-79
2023/06/26 04:17:44;;;;;;;15.30;9.00;;;16.90;99.90;;;;;;5057140;28;20282;-78
2023/06/26 04:20:11;;;;;;;15.93;8.83;;;16.90;99.90;;;;;;5057369;28;20235;-79
2023/06/26 04:22:38;;;;;;;14.37;8.77;;;16.90;99.90;;;;;;5091947;28;20214;-79
2023/06/26 04:25:05;;;;;;;15.47;9.20;;;17.10;99.90;;;;;;5076239;28;20205;-79
2023/06/26 04:27:32;;;;;;;19.10;9.77;;;17.20;99.90;;;;;;5061321;28;20197;-79
2023/06/26 04:30:03;;;;;;;18.30;9.10;;;17.10;99.90;;;;;;5061836;28;20217;-79
2023/06/26 04:32:29;;;;;;;14.83;8.83;;;17.20;99.90;;;;;;5077936;28;20193;-79
2023/06/26 04:34:57;;;;;;;15.83;9.50;;;17.30;99.90;;;;;;5060818;28;20308;-79
2023/06/26 04:37:24;;;;;;;14.10;8.63;;;17.40;99.90;;;;;;5077416;28;20288;-78
2023/06/26 04:39:51;;;;;;;14.30;8.80;;;17.40;99.90;;;;;;5060620;28;20194;-79
2023/06/26 04:42:21;;;;;;;15.37;9.07;;;17.50;99.90;;;;;;5060556;28;20645;-78
2023/06/26 04:44:48;;;;;;;15.67;9.23;;;17.70;99.90;;;;;;5077442;28;20672;-78
2023/06/26 04:47:15;;;;;;;15.67;9.63;;;17.80;99.90;;;;;;5073841;28;20226;-78
2023/06/26 04:49:45;;;;;;;12.20;8.63;;;17.70;99.90;;;;;;5073951;28;20198;-78
2023/06/26 04:52:13;;;;;;;16.30;9.40;;;17.80;99.90;;;;;;5073931;28;20178;-77
2023/06/26 04:54:40;;;;;;;16.20;9.70;;;17.90;99.90;;;;;;5057062;28;20741;-78
2023/06/26 04:57:08;;;;;;;17.30;9.20;;;18.00;99.90;;;;;;5057133;28;20197;-79
2023/06/26 04:59:35;;;;;;;16.57;9.53;;;18.10;99.90;;;;;;5073592;28;20591;-81
2023/06/26 05:02:05;;;;;;;17.53;9.57;;;18.20;99.90;;;;;;5074700;28;20210;-81
2023/06/26 05:04:32;;;;;;;15.80;8.53;;;18.30;99.90;;;;;;5056886;28;20205;-80
2023/06/26 05:07:01;;;;;;;16.80;9.70;;;18.30;99.90;;;;;;5073333;28;20214;-80
2023/06/26 05:09:28;;;;;;;16.50;9.50;;;18.40;99.90;;;;;;5056835;28;20285;-79
2023/06/26 05:11:59;;;;;;;18.70;9.90;;;18.50;99.90;;;;;;5073259;28;20744;-80
2023/06/26 05:14:25;;;;;;;15.33;9.33;;;18.60;99.90;;;;;;5073358;28;20712;-80
2023/06/26 05:16:52;;;;;;;16.93;9.10;;;18.60;99.90;;;;;;5072949;28;20740;-81
2023/06/26 05:19:19;;;;;;;13.97;8.90;;;18.70;99.90;;;;;;5056599;28;20237;-82
2023/06/26 05:21:48;;;;;;;15.87;8.93;;;18.80;99.90;;;;;;5074272;28;20307;-82
2023/06/26 05:24:16;;;;;;;19.37;9.27;;;18.90;99.90;;;;;;5073069;28;20198;-81
2023/06/26 05:26:43;;;;;;;18.83;9.47;;;19.10;99.90;;;;;;5073151;28;20264;-81
2023/06/26 05:29:10;;;;;;;13.33;8.80;;;19.10;99.90;;;;;;5073518;28;20245;-81
2023/06/26 05:31:49;;;;;;;15.53;8.53;;;19.20;99.90;;;;;;5074294;28;20217;-80
2023/06/26 05:34:22;;;;;;;14.33;9.07;;;19.30;99.90;;;;;;5056723;28;20202;-79
2023/06/26 05:36:51;;;;;;;16.40;9.50;;;19.40;99.90;;;;;;5073919;28;20218;-80
2023/06/26 05:39:18;;;;;;;15.27;8.97;;;19.50;99.90;;;;;;5056736;28;20309;-81
2023/06/26 05:41:45;;;;;;;13.60;8.23;;;19.60;99.90;;;;;;5074249;28;20275;-81
2023/06/26 05:44:13;;;;;;;13.87;8.60;;;19.70;99.90;;;;;;5074130;28;20186;-80
2023/06/26 05:46:40;;;;;;;13.90;8.97;;;19.70;99.90;;;;;;5072656;28;20291;-81
2023/06/26 05:49:07;;;;;;;12.80;8.10;;;19.80;99.90;;;;;;5072796;28;20205;-84
2023/06/26 05:51:35;;;;;;;14.23;8.00;;;19.90;99.90;;;;;;5073158;28;20214;-80
2023/06/26 05:54:02;;;;;;;12.03;8.07;;;20.00;99.90;;;;;;5072756;28;20198;-81
2023/06/26 05:56:30;;;;;;;11.77;7.70;;;20.20;99.90;;;;;;5072701;28;20213;-80
2023/06/26 05:58:58;;;;;;;12.10;8.03;;;20.40;99.90;;;;;;5074282;28;20206;-79
2023/06/26 06:01:25;;;;;;;16.83;7.87;;;20.50;99.90;;;;;;5055731;28;20226;-80
2023/06/26 06:03:52;;;;;;;13.03;7.53;;;20.60;99.90;;;;;;5071882;28;20284;-80
2023/06/26 06:06:19;;;;;;;12.27;7.10;;;20.70;99.90;;;;;;5072170;28;20214;-79
2023/06/26 06:08:45;;;;;;;12.87;7.63;;;20.70;99.90;;;;;;5073719;28;20216;-81
2023/06/26 06:11:15;;;;;;;14.23;7.30;;;20.90;99.90;;;;;;5072138;28;20658;-79
2023/06/26 06:13:42;;;;;;;13.73;7.50;;;21.00;99.90;;;;;;5072295;28;20218;-80
2023/06/26 06:16:09;;;;;;;11.57;7.03;;;21.10;99.90;;;;;;5055554;28;20210;-80
2023/06/26 06:18:36;;;;;;;11.70;7.57;;;21.20;99.90;;;;;;5073594;28;20237;-79
2023/06/26 06:21:03;;;;;;;12.77;7.20;;;21.30;99.90;;;;;;5073471;28;20261;-80
2023/06/26 06:23:30;;;;;;;9.53;6.57;;;21.30;99.90;;;;;;5072099;28;20218;-79
2023/06/26 06:25:57;;;;;;;12.27;6.93;;;21.40;99.90;;;;;;5073818;28;20206;-79
2023/06/26 06:28:24;;;;;;;9.80;5.10;;;21.40;99.90;;;;;;5072094;28;20229;-79
2023/06/26 06:30:51;;;;;;;9.07;5.93;;;21.50;99.90;;;;;;5055436;28;20246;-79
2023/06/26 06:33:18;;;;;;;14.40;7.03;;;21.60;99.90;;;;;;5072278;28;20190;-79
2023/06/26 06:35:45;;;;;;;9.70;6.03;;;21.70;99.90;;;;;;5071832;28;20239;-79
2023/06/26 06:38:12;;;;;;;11.33;6.93;;;21.80;99.90;;;;;;5071747;28;20251;-79
2023/06/26 06:40:39;;;;;;;11.37;6.07;;;21.90;99.90;;;;;;5072830;28;20226;-79
2023/06/26 06:43:06;;;;;;;10.57;6.20;;;22.00;99.90;;;;;;5072915;28;20292;-78
2023/06/26 06:45:33;;;;;;;10.80;5.90;;;22.10;99.90;;;;;;5071437;28;20313;-79
2023/06/26 06:48:00;;;;;;;8.47;5.70;;;22.20;99.90;;;;;;5071159;28;20287;-79
2023/06/26 06:50:27;;;;;;;9.93;5.40;;;22.20;99.90;;;;;;5072673;28;20210;-79
2023/06/26 06:52:54;;;;;;;6.40;5.20;;;22.40;99.90;;;;;;5055046;28;20198;-79
2023/06/26 06:55:21;;;;;;;8.47;5.67;;;22.40;99.90;;;;;;5054898;28;20238;-79
2023/06/26 06:57:48;;;;;;;8.80;5.80;;;22.50;99.90;;;;;;5071338;28;20297;-79
2023/06/26 07:00:15;;;;;;;11.47;5.80;;;22.60;99.90;;;;;;5071101;28;20317;-80
2023/06/26 07:02:44;;;;;;;8.93;5.50;;;22.50;99.90;;;;;;5054928;28;20317;-79
2023/06/26 07:05:12;;;;;;;9.23;5.53;;;22.50;99.90;;;;;;5071083;28;20225;-79
2023/06/26 07:07:39;;;;;;;8.10;5.63;;;22.60;99.90;;;;;;5054666;28;20699;-79
2023/06/26 07:10:10;;;;;;;10.13;5.70;;;22.70;99.90;;;;;;5072496;28;20220;-79
2023/06/26 07:12:37;;;;;;;10.73;5.95;;;22.70;99.90;;;;;;5054950;28;20194;-78
2023/06/26 07:15:05;;;;;;;11.93;5.93;;;22.90;99.90;;;;;;5072673;28;20218;-79
2023/06/26 07:17:33;;;;;;;9.47;5.83;;;22.90;99.90;;;;;;5071179;28;20197;-79
2023/06/26 07:20:05;;;;;;;10.80;6.20;;;23.00;99.90;;;;;;5071092;28;20291;-78
2023/06/26 07:22:32;;;;;;;8.57;5.90;;;23.00;99.90;;;;;;5070901;28;20214;-79
2023/06/26 07:24:59;;;;;;;12.70;5.90;;;23.20;99.90;;;;;;5072267;28;20210;-80
2023/06/26 07:27:26;;;;;;;8.38;5.38;;;23.30;99.90;;;;;;5071166;28;20509;-79
2023/06/26 07:29:53;;;;;;;9.97;5.20;;;23.40;99.90;;;;;;5070852;28;20667;-80
2023/06/26 07:32:20;;;;;;;8.00;5.20;;;23.50;99.90;;;;;;5054319;28;20191;-80
2023/06/26 07:34:47;;;;;;;8.37;5.33;;;23.50;99.90;;;;;;5072077;28;20553;-80
2023/06/26 07:37:14;;;;;;;9.63;5.03;;;23.40;99.90;;;;;;5072183;28;20194;-80
2023/06/26 07:39:41;;;;;;;10.27;5.10;;;23.40;99.90;;;;;;5071093;28;20280;-80
2023/06/26 07:42:08;;;;;;;7.68;4.97;;;23.60;99.90;;;;;;5070964;28;20536;-80
2023/06/26 07:44:35;;;;;;;6.95;4.90;;;23.70;99.90;;;;;;5054416;28;20686;-80
2023/06/26 07:47:02;;;;;;;11.57;5.25;;;23.70;99.90;;;;;;5070629;28;20269;-79
2023/06/26 07:49:29;;;;;;;7.23;4.60;;;23.80;99.90;;;;;;5071166;28;20233;-79
2023/06/26 07:51:56;;;;;;;7.40;4.80;;;23.80;99.90;;;;;;5072145;28;20240;-79
2023/06/26 07:54:23;;;;;;;11.57;5.23;;;24.00;99.90;;;;;;5071094;28;20186;-79
2023/06/26 07:57:00;;;;;;;7.22;4.50;;;24.10;99.90;;;;;;5070565;28;20210;-79
2023/06/26 07:59:29;;;;;;;7.60;4.82;;;24.10;99.90;;;;;;5055820;28;20734;-79
2023/06/26 08:01:58;;;;;;;7.40;5.30;;;24.30;99.90;;;;;;5074537;28;20244;-80
2023/06/26 08:04:27;;;;;;;8.82;4.95;;;24.40;99.90;;;;;;5074478;28;20288;-80
2023/06/26 08:06:55;;;;;;;8.77;4.97;;;24.40;99.90;;;;;;5074563;28;20222;-80
2023/06/26 08:09:24;;;;;;;8.40;4.68;;;24.60;99.90;;;;;;5058256;28;20217;-79
2023/06/26 08:11:52;;;;;;;10.70;4.68;;;24.70;99.90;;;;;;5075848;28;20275;-80
2023/06/26 08:14:19;;;;;;;9.27;4.97;;;24.60;99.90;;;;;;5074437;28;20622;-80
2023/06/26 08:16:46;;;;;;;9.55;4.90;;;24.60;99.90;;;;;;5075762;28;20202;-79
2023/06/26 08:19:14;;;;;;;8.65;4.72;;;24.50;99.90;;;;;;5074637;28;20187;-79
2023/06/26 08:21:45;;;;;;;8.50;5.10;;;24.40;99.90;;;;;;5074514;28;20217;-81
2023/06/26 08:24:13;;;;;;;5.93;4.28;;;24.60;99.90;;;;;;5057780;28;20202;-79
2023/06/26 08:26:40;;;;;;;6.45;4.68;;;24.70;99.90;;;;;;5074172;28;20320;-80
2023/06/26 08:29:10;;;;;;;6.45;4.63;;;25.00;99.90;;;;;;5057521;28;20297;-80
2023/06/26 08:31:39;;;;;;;6.07;4.43;;;25.70;99.90;;;;;;5074258;28;20229;-79
2023/06/26 08:34:08;;;;;;;8.50;4.10;;;26.30;99.90;;;;;;5074077;28;20285;-80
2023/06/26 08:36:35;;;;;;;5.53;3.92;;;26.80;99.90;;;;;;5057711;28;20254;-79
2023/06/26 08:39:02;;;;;;;5.82;4.25;;;27.50;99.90;;;;;;5057740;28;20198;-81
2023/06/26 08:41:30;;;;;;;6.63;4.10;;;28.20;97.90;;;;;;5073995;28;20404;-80
2023/06/26 08:43:57;;;;;;;8.88;4.00;;;28.60;95.80;;;;;;5075227;28;20226;-80
2023/06/26 08:46:24;;;;;;;10.05;3.83;;;29.00;94.80;;;;;;5073638;28;20230;-78
2023/06/26 08:49:14;;;;;;;5.78;3.65;;;29.00;92.80;;;;;;5057777;28;20477;-80
2023/06/26 08:51:44;;;;;;;5.82;4.00;;;29.60;92.00;;;;;;5074020;28;20250;-80
2023/06/26 08:54:15;;;;;;;7.03;4.03;;;29.20;88.80;;;;;;5057207;28;20244;-81
2023/06/26 08:56:44;;;;;;;6.20;3.50;;;28.70;87.00;;;;;;5057319;28;20332;-79
2023/06/26 08:59:12;;;;;;;5.28;3.78;;;29.20;89.60;;;;;;5073676;28;20620;-79
2023/06/26 09:01:40;;;;;;;6.53;4.00;;;29.80;90.50;;;;;;5057018;28;20697;-80
2023/06/26 09:04:07;;;;;;;4.75;3.53;;;30.10;89.80;;;;;;5073610;28;20213;-79
2023/06/26 09:06:34;;;;;;;8.93;4.15;;;30.40;84.90;;;;;;5074818;28;20214;-79
2023/06/26 09:09:01;;;;;;;5.57;3.75;;;30.60;87.90;;;;;;5073852;28;20194;-78
2023/06/26 09:11:28;;;;;;;4.28;3.20;;;30.20;81.00;;;;;;5056262;28;20249;-80
2023/06/26 09:13:55;;;;;;;5.97;3.15;;;30.10;78.40;;;;;;5075054;28;20277;-80
2023/06/26 09:16:26;;;;;;;5.55;3.47;;;29.90;74.60;;;;;;5073346;28;20229;-79
2023/06/26 09:18:55;;;;;;;7.82;3.65;;;29.50;76.80;;;;;;5056947;28;20202;-80
2023/06/26 09:21:24;;;;;;;7.05;3.90;;;29.10;77.40;;;;;;5073265;28;20268;-80
2023/06/26 09:23:52;;;;;;;7.22;3.72;;;29.60;80.20;;;;;;5073127;28;20210;-80
2023/06/26 09:26:22;;;;;;;4.25;3.58;;;29.80;80.00;;;;;;5077593;28;20225;-80
2023/06/26 09:28:49;;;;;;;7.43;3.83;;;29.80;76.20;;;;;;5075581;28;20202;-78
2023/06/26 09:31:17;;;;;;;6.47;4.05;;;29.60;76.80;;;;;;5080751;28;20210;-80
2023/06/26 09:34:04;;;;;;;5.22;3.55;;;29.70;77.80;;;;;;5075571;28;20667;-77
2023/06/26 09:36:33;;;;;;;5.70;3.85;;;29.90;79.90;;;;;;5081467;28;20214;-80
2023/06/26 09:39:08;;;;;;;6.45;4.22;;;30.00;78.30;;;;;;5077149;28;20194;-81
2023/06/26 09:41:35;;;;;;;7.28;3.88;;;29.80;76.20;;;;;;5077403;28;20678;-83
2023/06/26 09:44:03;;;;;;;5.93;3.90;;;30.40;81.20;;;;;;5075522;28;20261;-80
2023/06/26 09:46:31;;;;;;;7.45;4.28;;;30.80;80.70;;;;;;5061490;28;20268;-81
2023/06/26 09:49:05;;;;;;;7.53;4.35;;;30.90;75.70;;;;;;5077571;28;20638;-81
2023/06/26 09:51:34;;;;;;;5.38;4.35;;;30.90;73.10;;;;;;5077277;28;20296;-80
2023/06/26 09:54:02;;;;;;;9.35;4.15;;;30.80;74.80;;;;;;5077074;28;20654;-80
2023/06/26 09:56:30;;;;;;;7.63;3.90;;;31.10;77.10;;;;;;5058265;28;20689;-79
2023/06/26 09:58:58;;;;;;;5.40;4.22;;;31.10;76.50;;;;;;5077346;28;20214;-81
2023/06/26 10:01:26;;;;;;;4.95;3.85;;;31.40;77.00;;;;;;5073814;28;20244;-79
2023/06/26 10:03:56;;;;;;;6.20;4.00;;;31.80;79.30;;;;;;5074012;28;20387;-80
2023/06/26 10:06:40;;;;;;;7.95;4.65;;;32.20;75.70;;;;;;5074902;28;20570;-82
2023/06/26 10:09:08;;;;;;;5.45;4.15;;;31.40;72.50;;;;;;5072888;28;20554;-81
2023/06/26 10:12:06;;;;;;;6.20;4.25;;;31.90;73.00;;;;;;5073914;28;20233;-83
2023/06/26 10:14:38;;;;;;;5.80;4.30;;;32.10;70.70;;;;;;5073354;28;20194;-82
2023/06/26 10:17:10;;;;;;;5.45;4.10;;;31.90;73.50;;;;;;5073990;28;20194;-83
2023/06/26 10:19:39;;;;;;;5.85;3.97;;;30.80;69.90;;;;;;5074398;28;20228;-80
2023/06/26 10:22:08;;;;;;;6.85;4.22;;;30.70;73.10;;;;;;5074921;28;20194;-81
2023/06/26 10:24:36;;;;;;;5.35;4.25;;;31.10;74.10;;;;;;5075271;28;20226;-80
2023/06/26 10:27:20;;;;;;;7.65;4.47;;;31.50;71.70;;;;;;5075661;28;20193;-80
2023/06/26 10:29:58;;;;;;;5.68;4.20;;;31.50;72.60;;;;;;5077248;28;20217;-80
2023/06/26 10:32:27;;;;;;;5.20;3.90;;;31.90;73.30;;;;;;5074657;28;20190;-79
2023/06/26 10:34:56;;;;;;;6.47;4.22;;;32.20;71.20;;;;;;5058265;28;20350;-81
2023/06/26 10:37:43;;;;;;;5.65;4.28;;;32.10;65.70;;;;;;5074776;28;20233;-79
2023/06/26 10:40:12;;;;;;;5.15;3.88;;;32.20;68.10;;;;;;5076487;28;20563;-78
2023/06/26 10:42:40;;;;;;;5.53;3.88;;;32.70;65.30;;;;;;5073560;28;20206;-79
2023/06/26 10:45:15;;;;;;;6.25;4.15;;;32.90;65.40;;;;;;5071795;28;20225;-80
2023/06/26 10:47:47;;;;;;;4.88;3.80;;;33.30;67.00;;;;;;5071963;28;20225;-79
2023/06/26 10:50:23;;;;;;;4.88;3.95;;;33.50;64.20;;;;;;5072084;28;20689;-79
2023/06/26 10:53:09;;;;;;;4.95;3.80;;;33.40;63.80;;;;;;5072040;28;20236;-80
2023/06/26 10:55:37;;;;;;;5.13;3.28;;;33.10;59.90;;;;;;5072872;28;20214;-81
2023/06/26 10:58:04;;;;;;;5.82;3.75;;;32.80;60.30;;;;;;5071693;28;20194;-80
2023/06/26 11:00:31;;;;;;;5.13;3.33;;;33.30;63.80;;;;;;5071938;28;20225;-80
2023/06/26 11:03:00;;;;;;;7.65;4.15;;;33.40;62.20;;;;;;5071997;28;20296;-82
2023/06/26 11:05:29;;;;;;;5.18;3.85;;;33.00;60.30;;;;;;5056171;28;20222;-81
2023/06/26 11:08:07;;;;;;;4.78;3.92;;;33.20;62.00;;;;;;5073564;28;20194;-81
2023/06/26 11:10:52;;;;;;;5.88;4.07;;;33.10;61.90;;;;;;5072347;28;20263;-82
2023/06/26 11:13:21;;;;;;;4.00;3.30;;;32.90;62.40;;;;;;5072269;28;20190;-81
2023/06/26 11:15:49;;;;;;;5.28;4.20;;;32.80;60.90;;;;;;5073428;28;20237;-82
2023/06/26 11:18:17;;;;;;;6.60;4.05;;;32.40;61.10;;;;;;5055620;28;20205;-81
2023/06/26 11:20:44;;;;;;;6.57;4.18;;;31.90;62.70;;;;;;5055225;28;20222;-81
2023/06/26 11:23:12;;;;;;;5.22;4.20;;;32.20;66.30;;;;;;5054962;28;20214;-82
2023/06/26 11:25:39;;;;;;;7.90;4.20;;;33.00;64.00;;;;;;5072476;28;20236;-81
2023/06/26 11:28:09;;;;;;;7.65;4.30;;;32.90;61.10;;;;;;5072483;28;20263;-82
2023/06/26 11:30:36;;;;;;;5.35;4.10;;;32.70;60.90;;;;;;5072367;28;20282;-79
2023/06/26 11:33:10;;;;;;;5.47;3.80;;;32.20;61.40;;;;;;5070987;28;20194;-82
2023/06/26 11:35:38;;;;;;;6.63;4.57;;;31.30;63.30;;;;;;5073543;28;20283;-82
2023/06/26 11:38:05;;;;;;;10.45;4.53;;;30.60;63.70;;;;;;5071627;28;20236;-83
2023/06/26 11:40:35;;;;;;;5.13;3.92;;;30.80;66.00;;;;;;5038825;28;20214;-81
2023/06/26 11:43:03;;;;;;;6.35;4.10;;;31.40;64.20;;;;;;5071752;28;20232;-81
2023/06/26 11:45:32;;;;;;;7.22;4.05;;;31.90;62.00;;;;;;5072903;28;20622;-80
2023/06/26 11:48:00;;;;;;;8.20;3.80;;;31.80;60.50;;;;;;5071745;28;20240;-81
2023/06/26 11:50:28;;;;;;;6.80;4.00;;;31.70;60.10;;;;;;5072457;28;20234;-82
2023/06/26 11:52:58;;;;;;;7.93;4.38;;;31.10;61.20;;;;;;5070973;28;20734;-80
2023/06/26 11:55:26;;;;;;;4.65;3.55;;;31.50;63.70;;;;;;5072838;28;20244;-81
2023/06/26 11:57:54;;;;;;;5.03;3.50;;;32.10;63.00;;;;;;5071038;28;20289;-82
2023/06/26 12:00:23;;;;;;;6.53;3.88;;;32.80;59.30;;;;;;5072257;28;20251;-82
2023/06/26 12:02:51;;;;;;;7.82;4.05;;;33.20;59.80;;;;;;5054204;28;20186;-82
2023/06/26 12:05:20;;;;;;;3.78;3.40;;;33.00;58.70;;;;;;5072459;28;20268;-81
2023/06/26 12:07:49;;;;;;;4.75;3.67;;;32.80;60.10;;;;;;5070827;28;20236;-82
2023/06/26 12:10:17;;;;;;;4.72;3.60;;;33.00;59.10;;;;;;5072126;28;20234;-82
2023/06/26 12:12:45;;;;;;;4.43;3.50;;;33.50;58.00;;;;;;5073861;28;20186;-81
2023/06/26 12:15:15;;;;;;;5.90;3.67;;;33.90;58.50;;;;;;5074292;28;20206;-80
2023/06/26 12:17:45;;;;;;;5.18;3.33;;;34.10;57.10;;;;;;5073633;28;20267;-83
2023/06/26 12:20:22;;;;;;;4.47;3.60;;;33.80;56.20;;;;;;5073961;28;20252;-82
2023/06/26 12:22:49;;;;;;;4.30;3.50;;;33.70;56.70;;;;;;5073872;28;20284;-81
2023/06/26 12:25:23;;;;;;;5.93;3.55;;;33.70;56.50;;;;;;5074258;28;20701;-83
2023/06/26 12:27:50;;;;;;;4.15;3.17;;;32.90;56.00;;;;;;5073442;28;20185;-82
2023/06/26 12:30:17;;;;;;;5.03;3.50;;;33.20;56.00;;;;;;5075592;28;20220;-83
2023/06/26 12:32:46;;;;;;;4.68;3.40;;;33.30;57.00;;;;;;5056678;28;20289;-81
2023/06/26 12:35:15;;;;;;;4.32;3.28;;;33.60;55.90;;;;;;5070859;28;20214;-82
2023/06/26 12:37:44;;;;;;;5.03;3.25;;;33.80;55.20;;;;;;5072683;28;20188;-82
2023/06/26 12:40:23;;;;;;;5.82;3.45;;;33.30;55.00;;;;;;5071186;28;20240;-83
2023/06/26 12:42:50;;;;;;;3.88;3.00;;;33.60;54.80;;;;;;5054159;28;20239;-83
2023/06/26 12:45:17;;;;;;;3.70;3.17;;;34.20;56.90;;;;;;5072668;28;20206;-82
2023/06/26 12:47:48;;;;;;;3.83;2.95;;;34.10;53.50;;;;;;5091947;28;20579;-83
2023/06/26 12:50:16;;;;;;;4.65;3.17;;;33.80;54.90;;;;;;5077145;28;20719;-83